createdAt,value
2022-11-05T00:00:53.235Z,100560.19
2022-11-05T00:04:06.174Z,100562.34
2022-11-05T00:07:13.222Z,100555.25
2022-11-05T00:10:05.974Z,100560.66
2022-11-05T00:13:12.412Z,100561.97
2022-11-05T00:16:16.947Z,100563.88
2022-11-05T00:19:10.153Z,100577.31
2022-11-05T00:22:14.659Z,100562.16
2022-11-05T00:25:17.868Z,100580.66
2022-11-05T00:28:04.940Z,100563.63
2022-11-05T00:30:52.135Z,100580.03
2022-11-05T00:33:40.127Z,100583.88
2022-11-05T00:36:26.938Z,100578.16
2022-11-05T00:39:13.848Z,100579.47
2022-11-05T00:42:19.656Z,100580.66
2022-11-05T00:45:08.103Z,100567.16
2022-11-05T00:48:12.791Z,100588.66
2022-11-05T00:50:59.951Z,100561.44
2022-11-05T00:53:46.993Z,100588.75
2022-11-05T00:56:34.286Z,100597.84
2022-11-05T00:59:22.308Z,100594.06
2022-11-05T01:02:09.637Z,100568.53
2022-11-05T01:04:56.505Z,100612.25
2022-11-05T01:07:43.233Z,100611.69
2022-11-05T01:10:30.621Z,100616.22
2022-11-05T01:13:19.826Z,100616.31
2022-11-05T01:16:10.767Z,100613.75
2022-11-05T01:18:57.466Z,100606.44
2022-11-05T01:21:44.151Z,100614.25
2022-11-05T01:24:30.900Z,100614.53
2022-11-05T01:27:18.042Z,100618.75
2022-11-05T01:30:06.940Z,100632.38
2022-11-05T01:32:55.262Z,100633.41
2022-11-05T01:35:42.502Z,100643.66
2022-11-05T01:38:29.308Z,100636.00
2022-11-05T01:41:16.217Z,100630.00
2022-11-05T01:44:03.404Z,100632.16
2022-11-05T01:46:50.535Z,100638.16
2022-11-05T01:49:38.785Z,100634.16
2022-11-05T01:52:27.915Z,100632.84
2022-11-05T01:55:20.686Z,100642.09
2022-11-05T01:58:10.298Z,100643.41
2022-11-05T02:00:58.068Z,100639.38
2022-11-05T02:03:46.148Z,100642.38
2022-11-05T02:06:38.312Z,100647.69
2022-11-05T02:09:31.051Z,100642.56
2022-11-05T02:12:19.326Z,100632.84
2022-11-05T02:15:08.144Z,100621.09
2022-11-05T02:18:05.798Z,100640.59
2022-11-05T02:21:04.049Z,100633.78
2022-11-05T02:24:13.946Z,100645.03
2022-11-05T02:27:15.277Z,100632.91
2022-11-05T02:30:08.716Z,100634.22
2022-11-05T02:33:16.294Z,100646.34
2022-11-05T02:36:14.239Z,100653.59
2022-11-05T02:39:12.940Z,100649.34
2022-11-05T02:42:09.195Z,100657.97
2022-11-05T02:45:06.398Z,100647.13
2022-11-05T02:47:59.993Z,100661.34
2022-11-05T02:50:57.905Z,100655.28
2022-11-05T02:53:51.986Z,100660.94
2022-11-05T02:56:42.781Z,100669.97
2022-11-05T02:59:29.766Z,100672.13
2022-11-05T03:02:17.095Z,100663.75
2022-11-05T03:05:05.274Z,100675.97
2022-11-05T03:08:00.482Z,100680.50
2022-11-05T03:10:57.541Z,100666.41
2022-11-05T03:13:53.786Z,100667.66
2022-11-05T03:16:42.907Z,100667.78
2022-11-05T03:19:37.919Z,100668.84
2022-11-05T03:22:29.498Z,100678.78
2022-11-05T03:25:22.577Z,100670.78
2022-11-05T03:28:11.756Z,100680.69
2022-11-05T03:31:00.300Z,100684.16
2022-11-05T03:33:49.421Z,100675.34
2022-11-05T03:36:41.176Z,100691.38
2022-11-05T03:39:33.851Z,100698.44
2022-11-05T03:42:26.945Z,100697.47
2022-11-05T03:45:17.704Z,100701.16
2022-11-05T03:48:08.198Z,100706.84
2022-11-05T03:51:01.409Z,100707.56
2022-11-05T03:53:51.949Z,100708.28
2022-11-05T03:56:45.697Z,100698.75
2022-11-05T03:59:41.452Z,100713.38
2022-11-05T04:02:28.590Z,100711.66
2022-11-05T04:05:15.640Z,100714.56
2022-11-05T04:08:20.185Z,100719.28
2022-11-05T04:11:26.474Z,100724.41
2022-11-05T04:14:13.475Z,100720.69
2022-11-05T04:17:07.313Z,100722.81
2022-11-05T04:20:11.347Z,100733.34
2022-11-05T04:23:22.699Z,100746.47
2022-11-05T04:26:09.691Z,100748.03
2022-11-05T04:29:14.157Z,100750.78
2022-11-05T04:32:02.506Z,100743.00
2022-11-05T04:34:49.281Z,100753.34
2022-11-05T04:37:35.996Z,100746.81
2022-11-05T04:40:22.826Z,100746.34
2022-11-05T04:43:14.919Z,100758.41
2022-11-05T04:46:02.198Z,100755.72
2022-11-05T04:48:50.141Z,100758.97
2022-11-05T04:51:36.897Z,100740.19
2022-11-05T04:54:23.673Z,100731.78
2022-11-05T04:57:11.096Z,100740.19
2022-11-05T04:59:57.985Z,100743.78
2022-11-05T05:02:44.925Z,100750.19
2022-11-05T05:05:32.902Z,100748.84
2022-11-05T05:08:19.503Z,100754.50
2022-11-05T05:11:08.015Z,100751.97
2022-11-05T05:13:54.937Z,100760.63
2022-11-05T05:16:41.565Z,100758.47
2022-11-05T05:19:28.588Z,100737.44
2022-11-05T05:22:16.068Z,100766.34
2022-11-05T05:25:03.371Z,100768.84
2022-11-05T05:27:50.409Z,100767.13
2022-11-05T05:30:37.197Z,100773.63
2022-11-05T05:33:24.313Z,100771.28
2022-11-05T05:36:11.671Z,100768.06
2022-11-05T05:39:00.253Z,100763.47
2022-11-05T05:41:47.003Z,100760.66
2022-11-05T05:44:33.661Z,100759.69
2022-11-05T05:47:21.096Z,100755.97
2022-11-05T05:50:08.487Z,100758.69
2022-11-05T05:52:55.792Z,100776.25
2022-11-05T05:55:44.314Z,100770.72
2022-11-05T05:58:33.618Z,100774.91
2022-11-05T06:01:20.840Z,100782.25
2022-11-05T06:04:07.980Z,100782.97
2022-11-05T06:06:54.770Z,100781.81
2022-11-05T06:09:42.051Z,100787.34
2022-11-05T06:12:31.425Z,100786.66
2022-11-05T06:15:18.539Z,100786.34
2022-11-05T06:18:05.471Z,100792.06
2022-11-05T06:20:52.913Z,100794.91
2022-11-05T06:23:42.438Z,100799.19
2022-11-05T06:26:29.799Z,100801.16
2022-11-05T06:29:17.882Z,100812.66
2022-11-05T06:32:04.537Z,100813.84
2022-11-05T06:34:51.322Z,100810.97
2022-11-05T06:37:38.171Z,100813.69
2022-11-05T06:40:26.324Z,100814.03
2022-11-05T06:43:13.381Z,100803.19
2022-11-05T06:46:03.810Z,100820.88
2022-11-05T06:48:50.975Z,100820.34
2022-11-05T06:51:38.123Z,100834.41
2022-11-05T06:54:25.054Z,100847.56
2022-11-05T06:57:12.856Z,100852.34
2022-11-05T07:00:03.325Z,100852.41
2022-11-05T07:02:55.898Z,100859.19
2022-11-05T07:05:47.516Z,100860.22
2022-11-05T07:08:36.225Z,100873.66
2022-11-05T07:11:23.317Z,100869.75
2022-11-05T07:14:10.506Z,100876.59
2022-11-05T07:16:57.872Z,100882.00
2022-11-05T07:19:46.226Z,100883.28
2022-11-05T07:22:33.347Z,100880.06
2022-11-05T07:25:20.333Z,100875.03
2022-11-05T07:28:07.872Z,100889.78
2022-11-05T07:30:55.067Z,100887.94
2022-11-05T07:33:41.940Z,100889.63
2022-11-05T07:36:30.203Z,100888.69
2022-11-05T07:39:17.380Z,100884.97
2022-11-05T07:42:04.237Z,100902.03
2022-11-05T07:44:53.653Z,100903.91
2022-11-05T07:47:46.845Z,100901.56
2022-11-05T07:50:36.789Z,100906.56
2022-11-05T07:53:25.094Z,100905.72
2022-11-05T07:56:12.129Z,100909.06
2022-11-05T07:58:59.063Z,100913.97
2022-11-05T08:01:46.561Z,100910.25
2022-11-05T08:04:33.532Z,100910.94
2022-11-05T08:07:20.693Z,100908.88
2022-11-05T08:10:09.819Z,100914.63
2022-11-05T08:12:57.566Z,100911.91
2022-11-05T08:15:45.387Z,100905.50
2022-11-05T08:18:33.107Z,100909.63
2022-11-05T08:21:19.818Z,100902.13
2022-11-05T08:24:07.376Z,100907.22
2022-11-05T08:26:55.518Z,100913.13
2022-11-05T08:29:42.404Z,100917.75
2022-11-05T08:32:29.429Z,100915.84
2022-11-05T08:35:16.054Z,100875.22
2022-11-05T08:38:04.170Z,100909.19
2022-11-05T08:40:57.476Z,100906.50
2022-11-05T08:43:45.636Z,100909.66
2022-11-05T08:46:32.293Z,100920.19
2022-11-05T08:49:19.739Z,100917.97
2022-11-05T08:52:06.880Z,100920.00
2022-11-05T08:54:54.009Z,100929.69
2022-11-05T08:57:40.785Z,100917.81
2022-11-05T09:00:30.670Z,100923.59
2022-11-05T09:03:17.860Z,100925.31
2022-11-05T09:06:05.343Z,100928.19
2022-11-05T09:08:52.651Z,100924.97
2022-11-05T09:12:09.831Z,100924.28
2022-11-05T09:14:46.115Z,100928.53
2022-11-05T09:17:34.329Z,100923.78
2022-11-05T09:20:21.066Z,100927.19
2022-11-05T09:23:09.523Z,100930.06
2022-11-05T09:25:56.292Z,100928.97
2022-11-05T09:28:44.274Z,100926.91
2022-11-05T09:31:31.417Z,100932.81
2022-11-05T09:34:20.010Z,100928.28
2022-11-05T09:37:06.582Z,100937.28
2022-11-05T09:39:54.205Z,100933.63
2022-11-05T09:42:46.752Z,100942.75
2022-11-05T09:45:36.435Z,100936.38
2022-11-05T09:48:29.046Z,100940.31
2022-11-05T09:51:23.660Z,100945.16
2022-11-05T09:54:12.887Z,100948.94
2022-11-05T09:57:02.736Z,100952.81
2022-11-05T09:59:52.894Z,100960.63
2022-11-05T10:02:48.601Z,100958.06
2022-11-05T10:05:38.009Z,100963.75
2022-11-05T10:08:30.909Z,100964.22
2022-11-05T10:11:22.105Z,100971.78
2022-11-05T10:14:15.583Z,100974.78
2022-11-05T10:17:09.863Z,100971.13
2022-11-05T10:20:04.114Z,100969.28
2022-11-05T10:22:57.728Z,100976.66
2022-11-05T10:25:48.507Z,100978.31
2022-11-05T10:28:36.083Z,100966.56
2022-11-05T10:31:24.508Z,100974.00
2022-11-05T10:34:13.703Z,100973.91
2022-11-05T10:37:00.966Z,100972.22
2022-11-05T10:39:47.847Z,100980.19
2022-11-05T10:42:48.012Z,100980.47
2022-11-05T10:45:41.518Z,100974.09
2022-11-05T10:48:51.817Z,100969.28
2022-11-05T10:51:39.095Z,100956.00
2022-11-05T10:54:31.365Z,100969.56
2022-11-05T10:57:30.678Z,100961.75
2022-11-05T11:00:25.958Z,100965.03
2022-11-05T11:03:35.069Z,100959.22
2022-11-05T11:06:25.987Z,100962.03
2022-11-05T11:09:21.953Z,100954.41
2022-11-05T11:12:16.809Z,100952.66
2022-11-05T11:15:06.230Z,100952.38
2022-11-05T11:17:55.320Z,100958.16
2022-11-05T11:20:45.848Z,100946.97
2022-11-05T11:23:38.552Z,100951.69
2022-11-05T11:26:26.893Z,100951.66
2022-11-05T11:29:19.393Z,100953.16
2022-11-05T11:32:14.222Z,100956.94
2022-11-05T11:35:03.437Z,100964.56
2022-11-05T11:37:54.274Z,100963.34
2022-11-05T11:40:41.805Z,100965.41
2022-11-05T11:43:31.128Z,100957.22
2022-11-05T11:46:20.621Z,100953.34
2022-11-05T11:49:08.140Z,100950.16
2022-11-05T11:52:02.722Z,100955.88
2022-11-05T11:54:51.189Z,100943.78
2022-11-05T11:57:45.589Z,100958.22
2022-11-05T12:00:37.624Z,100948.44
2022-11-05T12:03:32.038Z,100952.31
2022-11-05T12:06:28.429Z,100951.75
2022-11-05T12:09:22.618Z,100945.28
2022-11-05T12:12:13.115Z,100933.81
2022-11-05T12:15:15.733Z,100957.91
2022-11-05T12:18:04.632Z,100961.66
2022-11-05T12:21:13.291Z,100958.84
2022-11-05T12:24:35.589Z,100950.44
2022-11-05T12:27:34.566Z,100963.72
2022-11-05T12:30:23.133Z,100941.31
2022-11-05T12:33:23.266Z,100949.53
2022-11-05T12:36:20.436Z,100946.69
2022-11-05T12:39:29.781Z,100935.84
2022-11-05T12:42:30.827Z,100936.00
2022-11-05T12:45:30.726Z,100937.47
2022-11-05T12:48:42.336Z,100936.31
2022-11-05T12:51:44.083Z,100934.53
2022-11-05T12:54:44.424Z,100936.59
2022-11-05T12:57:36.969Z,100935.06
2022-11-05T13:00:25.890Z,100938.84
2022-11-05T13:03:25.474Z,100926.41
2022-11-05T13:06:15.984Z,100937.00
2022-11-05T13:09:08.378Z,100934.47
2022-11-05T13:11:58.880Z,100936.72
2022-11-05T13:14:56.182Z,100927.88
2022-11-05T13:17:51.740Z,100941.84
2022-11-05T13:20:41.179Z,100926.91
2022-11-05T13:23:33.146Z,100899.63
2022-11-05T13:26:25.725Z,100917.38
2022-11-05T13:29:16.584Z,100931.44
2022-11-05T13:32:13.511Z,100921.47
2022-11-05T13:35:03.439Z,100925.13
2022-11-05T13:38:15.503Z,100920.78
2022-11-05T13:41:20.891Z,100906.22
2022-11-05T13:44:45.024Z,100916.00
2022-11-05T13:47:55.057Z,100915.63
2022-11-05T13:51:01.393Z,100918.81
2022-11-05T13:54:05.935Z,100918.13
2022-11-05T13:57:09.927Z,100914.50
2022-11-05T14:00:11.401Z,100912.13
2022-11-05T14:03:03.311Z,100920.72
2022-11-05T14:05:54.210Z,100923.97
2022-11-05T14:08:45.898Z,100928.53
2022-11-05T14:11:35.654Z,100924.94
2022-11-05T14:14:27.179Z,100913.09
2022-11-05T14:17:17.691Z,100925.41
2022-11-05T14:20:25.164Z,100916.28
2022-11-05T14:23:49.831Z,100921.53
2022-11-05T14:26:36.709Z,100902.25
2022-11-05T14:29:25.557Z,100920.06
2022-11-05T14:32:26.871Z,100922.63
2022-11-05T14:35:36.340Z,100914.13
2022-11-05T14:38:25.968Z,100913.56
2022-11-05T14:41:12.847Z,100915.34
2022-11-05T14:44:05.942Z,100911.97
2022-11-05T14:46:55.894Z,100925.03
2022-11-05T14:49:53.271Z,100919.78
2022-11-05T14:52:52.066Z,100926.28
2022-11-05T14:55:41.345Z,100931.91
2022-11-05T14:58:34.057Z,100923.81
2022-11-05T15:01:56.134Z,100923.34
2022-11-05T15:04:45.612Z,100938.09
2022-11-05T15:07:39.346Z,100923.13
2022-11-05T15:10:33.079Z,100924.66
2022-11-05T15:13:29.894Z,100940.97
2022-11-05T15:16:21.769Z,100936.19
2022-11-05T15:19:18.488Z,100927.81
2022-11-05T15:22:22.922Z,100935.72
2022-11-05T15:25:18.484Z,100936.78
2022-11-05T15:28:15.376Z,100915.13
2022-11-05T15:31:04.153Z,100922.94
2022-11-05T15:33:50.903Z,100910.44
2022-11-05T15:36:37.841Z,100907.50
2022-11-05T15:39:29.757Z,100910.25
2022-11-05T15:42:22.088Z,100903.53
2022-11-05T15:45:21.335Z,100903.09
2022-11-05T15:48:16.565Z,100876.84
2022-11-05T15:51:04.050Z,100895.19
2022-11-05T15:57:15.826Z,100895.50
2022-11-05T16:00:06.703Z,100904.47
2022-11-05T16:02:58.265Z,100914.03
2022-11-05T16:05:48.211Z,100918.88
2022-11-05T16:08:34.987Z,100919.59
2022-11-05T16:11:23.244Z,100920.28
2022-11-05T16:14:18.645Z,100918.75
2022-11-05T16:17:19.051Z,100921.34
2022-11-05T16:20:21.780Z,100924.56
2022-11-05T16:23:24.161Z,100905.75
2022-11-05T16:29:40.852Z,100922.09
2022-11-05T16:32:30.989Z,100928.75
2022-11-05T16:35:22.261Z,100933.28
2022-11-05T16:38:13.034Z,100932.97
2022-11-05T16:41:00.409Z,100934.59
2022-11-05T16:43:53.472Z,100936.78
2022-11-05T16:46:42.518Z,100940.25
2022-11-05T16:49:29.649Z,100922.84
2022-11-05T16:52:17.839Z,100922.69
2022-11-05T16:55:05.773Z,100929.66
2022-11-05T16:57:55.584Z,100941.16
2022-11-05T17:00:42.919Z,100951.56
2022-11-05T17:03:30.651Z,100951.09
2022-11-05T17:06:18.879Z,100956.03
2022-11-05T17:09:07.461Z,100953.69
2022-11-05T17:11:54.186Z,100947.88
2022-11-05T17:14:41.075Z,100939.00
2022-11-05T17:17:28.976Z,100947.47
2022-11-05T17:20:25.239Z,100942.88
2022-11-05T17:23:15.852Z,100954.66
2022-11-05T17:26:07.928Z,100946.97
2022-11-05T17:28:54.849Z,100957.44
2022-11-05T17:31:42.535Z,100941.69
2022-11-05T17:34:29.470Z,100952.94
2022-11-05T17:37:17.919Z,100954.31
2022-11-05T17:40:07.162Z,100951.16
2022-11-05T17:42:55.500Z,100955.19
2022-11-05T17:45:43.716Z,100953.00
2022-11-05T17:48:30.490Z,100956.25
2022-11-05T17:51:19.051Z,100954.84
2022-11-05T17:54:07.556Z,100945.97
2022-11-05T17:56:55.047Z,100943.19
2022-11-05T17:59:43.677Z,100956.75
2022-11-05T18:02:30.981Z,100955.56
2022-11-05T18:05:19.033Z,100950.81
2022-11-05T18:08:06.659Z,100932.91
2022-11-05T18:10:54.522Z,100944.22
2022-11-05T18:13:41.795Z,100935.81
2022-11-05T18:16:30.611Z,100931.31
2022-11-05T18:19:17.984Z,100934.97
2022-11-05T18:22:04.763Z,100933.28
2022-11-05T18:24:52.392Z,100934.84
2022-11-05T18:27:40.077Z,100933.34
2022-11-05T18:30:26.943Z,100929.13
2022-11-05T18:33:15.720Z,100918.84
2022-11-05T18:36:02.965Z,100931.78
2022-11-05T18:38:50.860Z,100931.66
2022-11-05T18:41:38.050Z,100930.16
2022-11-05T18:44:25.497Z,100939.47
2022-11-05T18:47:12.771Z,100942.50
2022-11-05T18:50:01.073Z,100942.63
2022-11-05T18:52:48.350Z,100941.31
2022-11-05T18:55:35.251Z,100946.16
2022-11-05T18:58:22.134Z,100941.56
2022-11-05T19:01:15.799Z,100942.31
2022-11-05T19:04:02.912Z,100941.31
2022-11-05T19:06:51.000Z,100939.59
2022-11-05T19:09:39.762Z,100927.66
2022-11-05T19:12:26.492Z,100936.25
2022-11-05T19:15:13.047Z,100934.22
2022-11-05T19:17:59.767Z,100933.03
2022-11-05T19:20:46.439Z,100935.31
2022-11-05T19:23:37.616Z,100929.41
2022-11-05T19:26:28.784Z,100928.34
2022-11-05T19:29:16.433Z,100917.50
2022-11-05T19:32:03.602Z,100928.53
2022-11-05T19:34:50.696Z,100930.44
2022-11-05T19:37:37.318Z,100931.47
2022-11-05T19:40:25.477Z,100936.09
2022-11-05T19:43:12.981Z,100930.81
2022-11-05T19:45:59.933Z,100922.38
2022-11-05T19:48:47.052Z,100912.88
2022-11-05T19:51:34.307Z,100911.81
2022-11-05T19:54:21.370Z,100914.88
2022-11-05T19:57:09.649Z,100917.28
2022-11-05T19:59:57.158Z,100916.22
2022-11-05T20:02:46.223Z,100918.59
2022-11-05T20:05:34.428Z,100923.25
2022-11-05T20:08:22.111Z,100928.88
2022-11-05T20:11:10.038Z,100925.50
2022-11-05T20:13:59.221Z,100935.91
2022-11-05T20:16:47.419Z,100934.34
2022-11-05T20:19:35.575Z,100934.34
2022-11-05T20:22:24.152Z,100922.28
2022-11-05T20:25:12.300Z,100882.25
2022-11-05T20:27:59.870Z,100928.63
2022-11-05T20:30:49.012Z,100924.47
2022-11-05T20:33:36.413Z,100931.28
2022-11-05T20:36:25.762Z,100932.63
2022-11-05T20:39:13.327Z,100933.38
2022-11-05T20:42:01.416Z,100927.13
2022-11-05T20:44:49.306Z,100924.25
2022-11-05T20:47:38.542Z,100920.34
2022-11-05T20:50:25.792Z,100916.63
2022-11-05T20:53:14.377Z,100927.91
2022-11-05T20:56:07.471Z,100924.53
2022-11-05T20:58:57.850Z,100927.28
2022-11-05T21:01:45.258Z,100932.72
2022-11-05T21:04:34.197Z,100933.38
2022-11-05T21:07:21.589Z,100938.13
2022-11-05T21:10:09.382Z,100937.44
2022-11-05T21:12:56.712Z,100942.53
2022-11-05T21:15:48.896Z,100939.09
2022-11-05T21:18:38.544Z,100946.97
2022-11-05T21:21:27.159Z,100950.69
2022-11-05T21:24:14.742Z,100948.03
2022-11-05T21:27:03.222Z,100947.38
2022-11-05T21:29:50.087Z,100942.03
2022-11-05T21:32:37.705Z,100945.97
2022-11-05T21:35:25.260Z,100941.69
2022-11-05T21:38:16.023Z,100933.72
2022-11-05T21:41:04.523Z,100953.41
2022-11-05T21:43:51.732Z,100946.91
2022-11-05T21:46:39.607Z,100945.28
2022-11-05T21:49:27.275Z,100938.63
2022-11-05T21:52:32.286Z,100946.25
2022-11-05T21:55:38.493Z,100937.44
2022-11-05T21:58:43.872Z,100946.97
2022-11-05T22:01:31.752Z,100929.25
2022-11-05T22:04:19.554Z,100937.03
2022-11-05T22:07:08.540Z,100929.34
2022-11-05T22:09:56.294Z,100928.34
2022-11-05T22:12:45.912Z,100922.34
2022-11-05T22:15:34.447Z,100904.72
2022-11-05T22:18:21.872Z,100903.03
2022-11-05T22:21:09.384Z,100892.50
2022-11-05T22:23:56.679Z,100902.25
2022-11-05T22:26:44.801Z,100890.69
2022-11-05T22:29:34.308Z,100873.44
2022-11-05T22:32:21.686Z,100881.53
2022-11-05T22:35:09.621Z,100899.91
2022-11-05T22:37:57.192Z,100898.84
2022-11-05T22:40:44.633Z,100892.34
2022-11-05T22:43:33.284Z,100891.53
2022-11-05T22:46:23.979Z,100895.63
2022-11-05T22:49:11.366Z,100898.66
2022-11-05T22:51:59.103Z,100900.63
2022-11-05T22:54:47.859Z,100894.47
2022-11-05T22:57:35.089Z,100889.91
2022-11-05T23:00:33.960Z,100894.53
2022-11-05T23:03:22.505Z,100894.88
2022-11-05T23:06:36.107Z,100895.94
2022-11-05T23:09:43.377Z,100883.31
2022-11-05T23:12:32.908Z,100873.84
2022-11-05T23:15:34.648Z,100890.84
2022-11-05T23:18:40.869Z,100877.38
2022-11-05T23:21:45.445Z,100877.72
2022-11-05T23:24:32.890Z,100877.91
2022-11-05T23:27:20.329Z,100881.34
2022-11-05T23:30:11.200Z,100871.44
2022-11-05T23:32:57.249Z,100870.25
2022-11-05T23:36:03.357Z,100861.53
2022-11-05T23:38:50.915Z,100868.78
2022-11-05T23:41:55.162Z,100863.25
2022-11-05T23:45:00.456Z,100860.06
2022-11-05T23:48:05.780Z,100856.44
2022-11-05T23:51:00.063Z,100871.84
2022-11-05T23:53:48.159Z,100863.63
2022-11-05T23:56:35.939Z,100868.78
2022-11-05T23:59:23.237Z,100855.81
